sensor_id;sensor_type;location;lat;lon;timestamp;pressure;altitude;pressure_sealevel;temperature;humidity
71889;BME280;59762;49.998;14.858;2022-07-17T00:01:50;98164.44;;;12.27;58.65
71889;BME280;59762;49.998;14.858;2022-07-17T00:04:15;98163.63;;;12.27;58.85
71889;BME280;59762;49.998;14.858;2022-07-17T00:06:41;98164.84;;;12.31;57.55
71889;BME280;59762;49.998;14.858;2022-07-17T00:09:07;98163.19;;;12.36;60.11
71889;BME280;59762;49.998;14.858;2022-07-17T00:11:32;98172.63;;;12.39;58.32
71889;BME280;59762;49.998;14.858;2022-07-17T00:13:58;98168.91;;;12.47;56.98
71889;BME280;59762;49.998;14.858;2022-07-17T00:16:24;98165.03;;;12.49;57.24
71889;BME280;59762;49.998;14.858;2022-07-17T00:18:49;98168.50;;;12.43;57.86
71889;BME280;59762;49.998;14.858;2022-07-17T00:21:15;98165.84;;;12.43;57.29
71889;BME280;59762;49.998;14.858;2022-07-17T00:23:41;98166.25;;;12.47;57.78
71889;BME280;59762;49.998;14.858;2022-07-17T00:26:06;98156.38;;;12.47;56.25
71889;BME280;59762;49.998;14.858;2022-07-17T00:28:32;98158.84;;;12.49;56.08
71889;BME280;59762;49.998;14.858;2022-07-17T00:30:57;98157.41;;;12.46;55.72
71889;BME280;59762;49.998;14.858;2022-07-17T00:33:23;98163.16;;;12.50;55.85
71889;BME280;59762;49.998;14.858;2022-07-17T00:35:49;98161.13;;;12.45;56.82
71889;BME280;59762;49.998;14.858;2022-07-17T00:38:14;98163.56;;;12.47;56.19
71889;BME280;59762;49.998;14.858;2022-07-17T00:40:41;98166.47;;;12.45;56.69
71889;BME280;59762;49.998;14.858;2022-07-17T00:43:06;98159.50;;;12.44;54.82
71889;BME280;59762;49.998;14.858;2022-07-17T00:45:32;98167.09;;;12.41;54.87
71889;BME280;59762;49.998;14.858;2022-07-17T00:48:00;98172.22;;;12.42;57.75
71889;BME280;59762;49.998;14.858;2022-07-17T00:50:30;98173.06;;;12.36;55.18
71889;BME280;59762;49.998;14.858;2022-07-17T00:52:56;98167.91;;;12.34;56.19
71889;BME280;59762;49.998;14.858;2022-07-17T00:55:23;98174.91;;;12.29;54.81
71889;BME280;59762;49.998;14.858;2022-07-17T00:57:50;98174.72;;;12.24;56.46
71889;BME280;59762;49.998;14.858;2022-07-17T01:00:17;98168.97;;;12.20;56.51
71889;BME280;59762;49.998;14.858;2022-07-17T01:02:50;98189.09;;;12.23;57.62
71889;BME280;59762;49.998;14.858;2022-07-17T01:05:18;98181.50;;;12.20;57.83
71889;BME280;59762;49.998;14.858;2022-07-17T01:07:44;98184.78;;;12.22;56.01
71889;BME280;59762;49.998;14.858;2022-07-17T01:10:11;98185.81;;;12.21;55.31
71889;BME280;59762;49.998;14.858;2022-07-17T01:12:37;98188.06;;;12.24;56.68
71889;BME280;59762;49.998;14.858;2022-07-17T01:15:04;98183.16;;;12.14;57.49
71889;BME280;59762;49.998;14.858;2022-07-17T01:17:30;98191.78;;;11.96;58.45
71889;BME280;59762;49.998;14.858;2022-07-17T01:19:56;98189.25;;;11.75;59.50
71889;BME280;59762;49.998;14.858;2022-07-17T01:22:22;98191.50;;;11.58;61.40
71889;BME280;59762;49.998;14.858;2022-07-17T01:24:48;98192.28;;;11.39;60.85
71889;BME280;59762;49.998;14.858;2022-07-17T01:27:15;98192.66;;;11.29;60.86
71889;BME280;59762;49.998;14.858;2022-07-17T01:29:41;98197.31;;;11.14;61.61
71889;BME280;59762;49.998;14.858;2022-07-17T01:32:07;98203.63;;;11.06;61.85
71889;BME280;59762;49.998;14.858;2022-07-17T01:34:32;98203.81;;;10.98;61.78
71889;BME280;59762;49.998;14.858;2022-07-17T01:36:58;98205.00;;;10.89;62.21
71889;BME280;59762;49.998;14.858;2022-07-17T01:39:24;98206.41;;;10.84;63.55
71889;BME280;59762;49.998;14.858;2022-07-17T01:42:09;98202.09;;;10.77;63.37
71889;BME280;59762;49.998;14.858;2022-07-17T01:44:34;98200.63;;;10.74;63.56
71889;BME280;59762;49.998;14.858;2022-07-17T01:47:00;98203.13;;;10.76;63.07
71889;BME280;59762;49.998;14.858;2022-07-17T01:49:26;98195.94;;;10.76;62.55
71889;BME280;59762;49.998;14.858;2022-07-17T01:51:52;98202.53;;;10.87;63.28
71889;BME280;59762;49.998;14.858;2022-07-17T01:54:17;98201.34;;;10.90;63.55
71889;BME280;59762;49.998;14.858;2022-07-17T01:56:43;98196.81;;;10.90;62.21
71889;BME280;59762;49.998;14.858;2022-07-17T01:59:09;98197.03;;;10.95;64.16
71889;BME280;59762;49.998;14.858;2022-07-17T02:01:34;98205.66;;;10.97;63.26
71889;BME280;59762;49.998;14.858;2022-07-17T02:04:00;98205.28;;;11.00;63.07
71889;BME280;59762;49.998;14.858;2022-07-17T02:06:25;98198.28;;;10.99;63.18
71889;BME280;59762;49.998;14.858;2022-07-17T02:08:51;98195.81;;;10.98;62.94
71889;BME280;59762;49.998;14.858;2022-07-17T02:11:18;98200.78;;;11.07;62.73
71889;BME280;59762;49.998;14.858;2022-07-17T02:13:43;98199.50;;;10.97;61.58
71889;BME280;59762;49.998;14.858;2022-07-17T02:16:09;98203.81;;;10.98;62.19
71889;BME280;59762;49.998;14.858;2022-07-17T02:18:35;98199.31;;;10.98;63.05
71889;BME280;59762;49.998;14.858;2022-07-17T02:21:01;98190.69;;;10.96;61.36
71889;BME280;59762;49.998;14.858;2022-07-17T02:23:26;98197.44;;;10.92;61.62
71889;BME280;59762;49.998;14.858;2022-07-17T02:25:54;98197.84;;;10.89;62.52
71889;BME280;59762;49.998;14.858;2022-07-17T02:28:20;98203.78;;;10.91;61.75
71889;BME280;59762;49.998;14.858;2022-07-17T02:30:46;98201.28;;;10.83;63.20
71889;BME280;59762;49.998;14.858;2022-07-17T02:33:12;98203.13;;;10.76;63.85
71889;BME280;59762;49.998;14.858;2022-07-17T02:35:37;98205.56;;;10.77;64.27
71889;BME280;59762;49.998;14.858;2022-07-17T02:38:03;98206.38;;;10.78;63.33
71889;BME280;59762;49.998;14.858;2022-07-17T02:40:29;98205.13;;;10.74;63.64
71889;BME280;59762;49.998;14.858;2022-07-17T02:42:55;98203.94;;;10.76;63.77
71889;BME280;59762;49.998;14.858;2022-07-17T02:45:20;98199.81;;;10.74;63.03
71889;BME280;59762;49.998;14.858;2022-07-17T02:47:50;98204.94;;;10.75;63.82
71889;BME280;59762;49.998;14.858;2022-07-17T02:50:16;98209.25;;;10.76;62.58
71889;BME280;59762;49.998;14.858;2022-07-17T02:52:41;98205.53;;;10.71;62.84
71889;BME280;59762;49.998;14.858;2022-07-17T02:55:10;98209.22;;;10.70;64.14
71889;BME280;59762;49.998;14.858;2022-07-17T02:57:39;98207.19;;;10.72;62.48
71889;BME280;59762;49.998;14.858;2022-07-17T03:00:07;98217.59;;;10.67;63.16
71889;BME280;59762;49.998;14.858;2022-07-17T03:02:33;98221.69;;;10.63;62.97
71889;BME280;59762;49.998;14.858;2022-07-17T03:04:58;98219.19;;;10.61;63.42
71889;BME280;59762;49.998;14.858;2022-07-17T03:07:24;98218.19;;;10.62;64.31
71889;BME280;59762;49.998;14.858;2022-07-17T03:09:50;98219.06;;;10.69;62.43
71889;BME280;59762;49.998;14.858;2022-07-17T03:12:15;98223.41;;;10.77;62.64
71889;BME280;59762;49.998;14.858;2022-07-17T03:14:41;98218.69;;;10.79;63.27
71889;BME280;59762;49.998;14.858;2022-07-17T03:17:06;98221.34;;;10.79;61.90
71889;BME280;59762;49.998;14.858;2022-07-17T03:19:32;98220.09;;;10.75;63.19
71889;BME280;59762;49.998;14.858;2022-07-17T03:21:58;98225.66;;;10.80;63.87
71889;BME280;59762;49.998;14.858;2022-07-17T03:24:23;98228.16;;;10.81;62.54
71889;BME280;59762;49.998;14.858;2022-07-17T03:26:49;98220.59;;;10.85;62.06
71889;BME280;59762;49.998;14.858;2022-07-17T03:29:15;98231.06;;;10.93;62.29
71889;BME280;59762;49.998;14.858;2022-07-17T03:31:43;98223.69;;;10.95;61.72
71889;BME280;59762;49.998;14.858;2022-07-17T03:34:09;98224.97;;;11.06;62.55
71889;BME280;59762;49.998;14.858;2022-07-17T03:36:35;98228.28;;;11.15;60.95
71889;BME280;59762;49.998;14.858;2022-07-17T03:39:01;98225.03;;;11.19;60.16
71889;BME280;59762;49.998;14.858;2022-07-17T03:41:26;98231.88;;;11.35;61.30
71889;BME280;59762;49.998;14.858;2022-07-17T03:43:52;98235.56;;;11.41;61.60
71889;BME280;59762;49.998;14.858;2022-07-17T03:46:17;98232.50;;;11.50;60.86
71889;BME280;59762;49.998;14.858;2022-07-17T03:48:43;98228.06;;;11.71;60.48
71889;BME280;59762;49.998;14.858;2022-07-17T03:51:08;98236.56;;;12.34;58.14
71889;BME280;59762;49.998;14.858;2022-07-17T03:53:34;98224.22;;;13.18;54.93
71889;BME280;59762;49.998;14.858;2022-07-17T03:55:59;98238.75;;;13.80;52.71
71889;BME280;59762;49.998;14.858;2022-07-17T03:58:25;98235.19;;;14.49;50.46
71889;BME280;59762;49.998;14.858;2022-07-17T04:00:51;98240.69;;;14.54;49.85
71889;BME280;59762;49.998;14.858;2022-07-17T04:03:16;98231.09;;;15.38;49.98
71889;BME280;59762;49.998;14.858;2022-07-17T04:05:42;98238.06;;;15.58;48.20
71889;BME280;59762;49.998;14.858;2022-07-17T04:08:07;98234.66;;;15.99;48.49
71889;BME280;59762;49.998;14.858;2022-07-17T04:10:33;98236.09;;;16.37;46.67
71889;BME280;59762;49.998;14.858;2022-07-17T04:12:58;98235.41;;;16.53;48.19
71889;BME280;59762;49.998;14.858;2022-07-17T04:15:24;98235.38;;;17.12;47.43
71889;BME280;59762;49.998;14.858;2022-07-17T04:18:08;98245.53;;;17.33;45.85
71889;BME280;59762;49.998;14.858;2022-07-17T04:20:34;98240.47;;;17.49;44.98
71889;BME280;59762;49.998;14.858;2022-07-17T04:22:59;98245.16;;;17.42;43.51
71889;BME280;59762;49.998;14.858;2022-07-17T04:25:25;98230.88;;;17.70;43.84
71889;BME280;59762;49.998;14.858;2022-07-17T04:27:50;98231.47;;;18.17;42.42
71889;BME280;59762;49.998;14.858;2022-07-17T04:30:16;98236.72;;;18.57;42.59
71889;BME280;59762;49.998;14.858;2022-07-17T04:32:41;98239.56;;;18.84;42.21
71889;BME280;59762;49.998;14.858;2022-07-17T04:35:07;98238.19;;;18.82;41.14
71889;BME280;59762;49.998;14.858;2022-07-17T04:37:33;98238.09;;;18.77;42.21
71889;BME280;59762;49.998;14.858;2022-07-17T04:39:59;98241.66;;;18.99;41.46
71889;BME280;59762;49.998;14.858;2022-07-17T04:42:24;98242.75;;;18.81;43.81
71889;BME280;59762;49.998;14.858;2022-07-17T04:44:50;98243.25;;;19.17;41.15
71889;BME280;59762;49.998;14.858;2022-07-17T04:47:15;98250.91;;;19.47;41.56
71889;BME280;59762;49.998;14.858;2022-07-17T04:49:41;98252.69;;;18.98;40.74
71889;BME280;59762;49.998;14.858;2022-07-17T04:52:07;98252.03;;;19.51;40.79
71889;BME280;59762;49.998;14.858;2022-07-17T04:54:32;98256.31;;;19.69;41.85
71889;BME280;59762;49.998;14.858;2022-07-17T04:56:58;98259.31;;;19.29;40.36
71889;BME280;59762;49.998;14.858;2022-07-17T04:59:23;98263.13;;;19.99;38.62
71889;BME280;59762;49.998;14.858;2022-07-17T05:01:49;98261.31;;;20.09;40.02
71889;BME280;59762;49.998;14.858;2022-07-17T05:04:14;98267.22;;;20.01;39.03
71889;BME280;59762;49.998;14.858;2022-07-17T05:06:40;98263.09;;;20.26;38.48
71889;BME280;59762;49.998;14.858;2022-07-17T05:09:06;98265.66;;;20.37;39.37
71889;BME280;59762;49.998;14.858;2022-07-17T05:11:31;98258.13;;;19.85;38.48
71889;BME280;59762;49.998;14.858;2022-07-17T05:13:57;98254.16;;;20.52;39.01
71889;BME280;59762;49.998;14.858;2022-07-17T05:16:22;98251.16;;;20.49;39.85
71889;BME280;59762;49.998;14.858;2022-07-17T05:18:48;98261.16;;;20.21;39.79
71889;BME280;59762;49.998;14.858;2022-07-17T05:21:14;98256.22;;;20.72;37.87
71889;BME280;59762;49.998;14.858;2022-07-17T05:23:40;98254.91;;;20.85;37.97
71889;BME280;59762;49.998;14.858;2022-07-17T05:26:06;98262.81;;;20.91;39.47
71889;BME280;59762;49.998;14.858;2022-07-17T05:28:31;98258.47;;;20.85;37.96
71889;BME280;59762;49.998;14.858;2022-07-17T05:30:57;98258.13;;;20.77;39.03
71889;BME280;59762;49.998;14.858;2022-07-17T05:33:22;98267.28;;;21.13;38.22
71889;BME280;59762;49.998;14.858;2022-07-17T05:35:48;98263.66;;;20.97;38.63
71889;BME280;59762;49.998;14.858;2022-07-17T05:38:13;98268.69;;;21.21;39.85
71889;BME280;59762;49.998;14.858;2022-07-17T05:40:39;98263.66;;;21.45;39.94
71889;BME280;59762;49.998;14.858;2022-07-17T05:43:05;98264.22;;;20.99;37.73
71889;BME280;59762;49.998;14.858;2022-07-17T05:45:30;98257.41;;;20.91;37.69
71889;BME280;59762;49.998;14.858;2022-07-17T05:47:56;98261.31;;;21.16;38.14
71889;BME280;59762;49.998;14.858;2022-07-17T05:50:21;98269.06;;;20.97;37.10
71889;BME280;59762;49.998;14.858;2022-07-17T05:52:47;98273.38;;;20.93;37.57
71889;BME280;59762;49.998;14.858;2022-07-17T05:55:13;98272.38;;;20.67;37.28
71889;BME280;59762;49.998;14.858;2022-07-17T05:57:38;98283.47;;;20.65;39.37
71889;BME280;59762;49.998;14.858;2022-07-17T06:00:04;98283.28;;;20.72;39.82
71889;BME280;59762;49.998;14.858;2022-07-17T06:02:30;98288.06;;;21.02;39.46
71889;BME280;59762;49.998;14.858;2022-07-17T06:04:56;98284.50;;;20.54;38.77
71889;BME280;59762;49.998;14.858;2022-07-17T06:07:21;98284.88;;;20.68;39.16
71889;BME280;59762;49.998;14.858;2022-07-17T06:09:47;98289.59;;;20.88;38.90
71889;BME280;59762;49.998;14.858;2022-07-17T06:12:12;98290.69;;;20.50;37.43
71889;BME280;59762;49.998;14.858;2022-07-17T06:14:38;98291.84;;;20.59;40.40
71889;BME280;59762;49.998;14.858;2022-07-17T06:17:04;98298.97;;;20.75;40.27
71889;BME280;59762;49.998;14.858;2022-07-17T06:19:29;98303.88;;;20.46;38.30
71889;BME280;59762;49.998;14.858;2022-07-17T06:21:55;98304.34;;;20.11;39.87
71889;BME280;59762;49.998;14.858;2022-07-17T06:24:20;98313.03;;;20.13;39.95
71889;BME280;59762;49.998;14.858;2022-07-17T06:26:46;98308.22;;;20.20;40.09
71889;BME280;59762;49.998;14.858;2022-07-17T06:29:11;98322.47;;;20.10;40.42
71889;BME280;59762;49.998;14.858;2022-07-17T06:31:37;98315.22;;;19.89;39.85
71889;BME280;59762;49.998;14.858;2022-07-17T06:34:03;98313.50;;;19.61;40.48
71889;BME280;59762;49.998;14.858;2022-07-17T06:36:28;98317.75;;;19.35;39.75
71889;BME280;59762;49.998;14.858;2022-07-17T06:38:54;98302.00;;;19.49;41.69
71889;BME280;59762;49.998;14.858;2022-07-17T06:41:19;98309.81;;;18.89;41.91
71889;BME280;59762;49.998;14.858;2022-07-17T06:43:45;98308.47;;;18.25;42.24
71889;BME280;59762;49.998;14.858;2022-07-17T06:46:10;98312.13;;;17.50;42.73
71889;BME280;59762;49.998;14.858;2022-07-17T06:48:36;98319.31;;;17.09;46.40
71889;BME280;59762;49.998;14.858;2022-07-17T06:51:01;98318.84;;;16.77;45.71
71889;BME280;59762;49.998;14.858;2022-07-17T06:53:28;98323.22;;;16.59;47.13
71889;BME280;59762;49.998;14.858;2022-07-17T06:55:53;98321.34;;;16.60;49.34
71889;BME280;59762;49.998;14.858;2022-07-17T06:58:19;98331.97;;;16.43;48.71
71889;BME280;59762;49.998;14.858;2022-07-17T07:00:44;98326.97;;;16.58;47.96
71889;BME280;59762;49.998;14.858;2022-07-17T07:03:10;98328.75;;;16.64;49.19
71889;BME280;59762;49.998;14.858;2022-07-17T07:05:36;98325.91;;;16.59;49.35
71889;BME280;59762;49.998;14.858;2022-07-17T07:08:01;98332.38;;;16.70;48.86
71889;BME280;59762;49.998;14.858;2022-07-17T07:10:27;98323.84;;;16.73;49.00
71889;BME280;59762;49.998;14.858;2022-07-17T07:12:53;98330.09;;;16.74;46.67
71889;BME280;59762;49.998;14.858;2022-07-17T07:15:19;98327.25;;;16.80;47.37
71889;BME280;59762;49.998;14.858;2022-07-17T07:17:44;98324.91;;;16.72;47.55
71889;BME280;59762;49.998;14.858;2022-07-17T07:20:11;98331.78;;;16.68;46.23
71889;BME280;59762;49.998;14.858;2022-07-17T07:22:36;98327.22;;;16.69;46.82
71889;BME280;59762;49.998;14.858;2022-07-17T07:25:03;98324.06;;;16.72;46.30
71889;BME280;59762;49.998;14.858;2022-07-17T07:27:29;98326.47;;;16.92;48.12
71889;BME280;59762;49.998;14.858;2022-07-17T07:29:54;98326.34;;;17.10;47.40
71889;BME280;59762;49.998;14.858;2022-07-17T07:32:20;98329.94;;;17.04;47.54
71889;BME280;59762;49.998;14.858;2022-07-17T07:34:46;98329.59;;;17.12;47.65
71889;BME280;59762;49.998;14.858;2022-07-17T07:37:12;98327.03;;;17.05;47.70
71889;BME280;59762;49.998;14.858;2022-07-17T07:39:38;98328.66;;;16.95;47.75
71889;BME280;59762;49.998;14.858;2022-07-17T07:42:03;98326.00;;;16.83;47.53
71889;BME280;59762;49.998;14.858;2022-07-17T07:44:29;98329.25;;;16.85;47.52
71889;BME280;59762;49.998;14.858;2022-07-17T07:46:55;98327.28;;;16.92;46.87
71889;BME280;59762;49.998;14.858;2022-07-17T07:49:20;98328.91;;;17.17;48.37
71889;BME280;59762;49.998;14.858;2022-07-17T07:51:46;98326.66;;;17.25;51.19
71889;BME280;59762;49.998;14.858;2022-07-17T07:54:12;98323.88;;;17.08;46.02
71889;BME280;59762;49.998;14.858;2022-07-17T07:56:37;98326.56;;;17.20;47.99
71889;BME280;59762;49.998;14.858;2022-07-17T07:59:03;98333.31;;;17.34;49.42
71889;BME280;59762;49.998;14.858;2022-07-17T08:01:29;98322.56;;;17.34;46.80
71889;BME280;59762;49.998;14.858;2022-07-17T08:03:55;98326.31;;;17.45;47.09
71889;BME280;59762;49.998;14.858;2022-07-17T08:06:21;98323.56;;;17.57;49.03
71889;BME280;59762;49.998;14.858;2022-07-17T08:08:46;98328.47;;;17.60;47.84
71889;BME280;59762;49.998;14.858;2022-07-17T08:11:12;98324.38;;;17.57;46.47
71889;BME280;59762;49.998;14.858;2022-07-17T08:13:38;98329.91;;;17.51;46.83
71889;BME280;59762;49.998;14.858;2022-07-17T08:16:04;98332.19;;;17.71;46.97
71889;BME280;59762;49.998;14.858;2022-07-17T08:18:29;98337.34;;;17.72;44.13
71889;BME280;59762;49.998;14.858;2022-07-17T08:20:55;98317.34;;;17.80;45.05
71889;BME280;59762;49.998;14.858;2022-07-17T08:23:20;98322.22;;;17.83;42.68
71889;BME280;59762;49.998;14.858;2022-07-17T08:25:46;98322.63;;;17.63;43.74
71889;BME280;59762;49.998;14.858;2022-07-17T08:28:13;98333.84;;;17.72;43.38
71889;BME280;59762;49.998;14.858;2022-07-17T08:30:39;98324.13;;;17.82;44.40
71889;BME280;59762;49.998;14.858;2022-07-17T08:33:07;98331.28;;;18.05;44.21
71889;BME280;59762;49.998;14.858;2022-07-17T08:35:34;98327.78;;;18.33;44.71
71889;BME280;59762;49.998;14.858;2022-07-17T08:37:59;98332.44;;;18.38;42.11
71889;BME280;59762;49.998;14.858;2022-07-17T08:40:30;98329.97;;;18.53;42.76
71889;BME280;59762;49.998;14.858;2022-07-17T08:42:57;98332.75;;;18.58;41.54
71889;BME280;59762;49.998;14.858;2022-07-17T08:45:23;98331.03;;;18.35;41.84
71889;BME280;59762;49.998;14.858;2022-07-17T08:47:53;98325.41;;;18.08;42.65
71889;BME280;59762;49.998;14.858;2022-07-17T08:50:32;98334.50;;;18.19;46.59
71889;BME280;59762;49.998;14.858;2022-07-17T08:52:58;98331.06;;;18.07;43.35
71889;BME280;59762;49.998;14.858;2022-07-17T08:55:25;98336.19;;;18.08;40.38
71889;BME280;59762;49.998;14.858;2022-07-17T08:57:50;98338.81;;;18.03;42.57
71889;BME280;59762;49.998;14.858;2022-07-17T09:00:19;98342.56;;;18.02;42.89
71889;BME280;59762;49.998;14.858;2022-07-17T09:05:34;98336.16;;;18.20;45.35
71889;BME280;59762;49.998;14.858;2022-07-17T09:08:00;98336.25;;;18.25;41.89
71889;BME280;59762;49.998;14.858;2022-07-17T09:10:42;98327.44;;;18.30;44.28
71889;BME280;59762;49.998;14.858;2022-07-17T09:15:42;98320.19;;;18.47;42.94
71889;BME280;59762;49.998;14.858;2022-07-17T09:18:07;98316.66;;;18.47;41.71
71889;BME280;59762;49.998;14.858;2022-07-17T09:20:33;98323.34;;;18.44;41.74
71889;BME280;59762;49.998;14.858;2022-07-17T09:23:03;98323.00;;;18.69;44.18
71889;BME280;59762;49.998;14.858;2022-07-17T09:25:34;98321.63;;;18.55;41.52
71889;BME280;59762;49.998;14.858;2022-07-17T09:28:03;98321.34;;;18.51;40.02
71889;BME280;59762;49.998;14.858;2022-07-17T09:30:29;98323.34;;;18.44;41.29
71889;BME280;59762;49.998;14.858;2022-07-17T09:32:56;98322.38;;;18.50;44.51
71889;BME280;59762;49.998;14.858;2022-07-17T09:35:23;98327.75;;;18.50;41.83
71889;BME280;59762;49.998;14.858;2022-07-17T09:37:51;98325.97;;;18.39;40.91
71889;BME280;59762;49.998;14.858;2022-07-17T09:40:18;98316.16;;;18.33;40.85
71889;BME280;59762;49.998;14.858;2022-07-17T09:43:03;98321.66;;;18.38;41.36
71889;BME280;59762;49.998;14.858;2022-07-17T09:45:32;98333.59;;;18.42;42.01
71889;BME280;59762;49.998;14.858;2022-07-17T09:47:58;98329.00;;;18.43;41.40
71889;BME280;59762;49.998;14.858;2022-07-17T09:50:27;98321.97;;;18.58;43.70
71889;BME280;59762;49.998;14.858;2022-07-17T09:52:55;98318.50;;;18.75;43.59
71889;BME280;59762;49.998;14.858;2022-07-17T09:55:22;98315.25;;;18.73;43.22
71889;BME280;59762;49.998;14.858;2022-07-17T09:57:48;98308.78;;;18.90;42.41
71889;BME280;59762;49.998;14.858;2022-07-17T10:00:16;98304.19;;;18.91;40.76
71889;BME280;59762;49.998;14.858;2022-07-17T10:02:43;98308.59;;;18.97;38.05
71889;BME280;59762;49.998;14.858;2022-07-17T10:05:10;98311.69;;;19.06;38.22
71889;BME280;59762;49.998;14.858;2022-07-17T10:07:43;98311.00;;;19.15;37.98
71889;BME280;59762;49.998;14.858;2022-07-17T10:10:12;98306.03;;;19.07;40.26
71889;BME280;59762;49.998;14.858;2022-07-17T10:12:41;98316.69;;;19.36;40.41
71889;BME280;59762;49.998;14.858;2022-07-17T10:15:07;98323.22;;;19.40;39.66
71889;BME280;59762;49.998;14.858;2022-07-17T10:17:33;98301.69;;;19.45;40.30
71889;BME280;59762;49.998;14.858;2022-07-17T10:19:59;98307.72;;;19.52;43.42
71889;BME280;59762;49.998;14.858;2022-07-17T10:22:26;98311.72;;;19.67;41.46
71889;BME280;59762;49.998;14.858;2022-07-17T10:24:53;98307.06;;;19.62;39.40
71889;BME280;59762;49.998;14.858;2022-07-17T10:27:26;98310.38;;;19.69;39.96
71889;BME280;59762;49.998;14.858;2022-07-17T10:32:30;98304.97;;;19.69;38.51
71889;BME280;59762;49.998;14.858;2022-07-17T10:35:02;98302.41;;;20.06;37.62
71889;BME280;59762;49.998;14.858;2022-07-17T10:40:21;98297.03;;;20.38;37.85
71889;BME280;59762;49.998;14.858;2022-07-17T10:42:55;98299.13;;;20.31;36.27
71889;BME280;59762;49.998;14.858;2022-07-17T10:45:23;98294.34;;;20.71;36.08
71889;BME280;59762;49.998;14.858;2022-07-17T10:47:50;98303.00;;;21.05;40.01
71889;BME280;59762;49.998;14.858;2022-07-17T10:50:19;98298.63;;;20.99;39.90
71889;BME280;59762;49.998;14.858;2022-07-17T10:53:06;98294.03;;;20.99;38.75
71889;BME280;59762;49.998;14.858;2022-07-17T10:55:34;98301.81;;;20.90;37.17
71889;BME280;59762;49.998;14.858;2022-07-17T10:58:01;98306.19;;;20.97;35.17
71889;BME280;59762;49.998;14.858;2022-07-17T11:00:27;98305.78;;;21.20;37.95
71889;BME280;59762;49.998;14.858;2022-07-17T11:02:53;98299.38;;;21.31;34.20
71889;BME280;59762;49.998;14.858;2022-07-17T11:05:19;98297.34;;;21.69;37.72
71889;BME280;59762;49.998;14.858;2022-07-17T11:10:15;98294.63;;;21.64;37.49
71889;BME280;59762;49.998;14.858;2022-07-17T11:12:41;98298.72;;;21.61;36.32
71889;BME280;59762;49.998;14.858;2022-07-17T11:15:07;98298.03;;;22.07;36.33
71889;BME280;59762;49.998;14.858;2022-07-17T11:17:32;98288.06;;;22.23;36.21
71889;BME280;59762;49.998;14.858;2022-07-17T11:19:58;98286.88;;;21.98;33.07
71889;BME280;59762;49.998;14.858;2022-07-17T11:22:25;98290.00;;;21.54;34.55
71889;BME280;59762;49.998;14.858;2022-07-17T11:24:52;98285.50;;;21.28;35.05
71889;BME280;59762;49.998;14.858;2022-07-17T11:27:26;98288.47;;;21.26;35.92
71889;BME280;59762;49.998;14.858;2022-07-17T11:29:53;98283.88;;;20.84;36.37
71889;BME280;59762;49.998;14.858;2022-07-17T11:32:19;98279.81;;;20.82;38.27
71889;BME280;59762;49.998;14.858;2022-07-17T11:34:46;98291.19;;;20.84;36.84
71889;BME280;59762;49.998;14.858;2022-07-17T11:37:12;98286.44;;;21.01;38.18
71889;BME280;59762;49.998;14.858;2022-07-17T11:39:47;98286.50;;;21.11;33.55
71889;BME280;59762;49.998;14.858;2022-07-17T11:42:15;98286.13;;;20.98;34.83
71889;BME280;59762;49.998;14.858;2022-07-17T11:44:41;98296.50;;;20.69;36.75
71889;BME280;59762;49.998;14.858;2022-07-17T11:47:09;98300.06;;;20.42;34.43
71889;BME280;59762;49.998;14.858;2022-07-17T11:49:39;98302.59;;;20.27;35.11
71889;BME280;59762;49.998;14.858;2022-07-17T11:52:09;98294.75;;;20.52;37.37
71889;BME280;59762;49.998;14.858;2022-07-17T11:54:55;98297.47;;;20.52;37.29
71889;BME280;59762;49.998;14.858;2022-07-17T11:57:23;98294.63;;;20.42;34.62
71889;BME280;59762;49.998;14.858;2022-07-17T11:59:50;98293.88;;;20.47;36.71
71889;BME280;59762;49.998;14.858;2022-07-17T12:02:20;98292.69;;;20.64;36.57
71889;BME280;59762;49.998;14.858;2022-07-17T12:04:52;98283.63;;;20.81;38.11
71889;BME280;59762;49.998;14.858;2022-07-17T12:07:19;98280.59;;;20.77;35.57
71889;BME280;59762;49.998;14.858;2022-07-17T12:09:44;98280.81;;;21.08;36.40
71889;BME280;59762;49.998;14.858;2022-07-17T12:12:20;98271.88;;;21.07;35.24
71889;BME280;59762;49.998;14.858;2022-07-17T12:14:53;98278.78;;;20.93;34.13
71889;BME280;59762;49.998;14.858;2022-07-17T12:17:20;98273.94;;;20.95;37.74
71889;BME280;59762;49.998;14.858;2022-07-17T12:19:45;98268.78;;;20.94;34.67
71889;BME280;59762;49.998;14.858;2022-07-17T12:22:11;98257.22;;;20.66;34.67
71889;BME280;59762;49.998;14.858;2022-07-17T12:24:42;98267.97;;;20.51;35.54
71889;BME280;59762;49.998;14.858;2022-07-17T12:27:09;98274.72;;;20.53;33.91
71889;BME280;59762;49.998;14.858;2022-07-17T12:29:35;98273.13;;;20.57;36.74
71889;BME280;59762;49.998;14.858;2022-07-17T12:32:08;98269.47;;;20.74;35.13
71889;BME280;59762;49.998;14.858;2022-07-17T12:34:46;98267.03;;;20.45;34.29
71889;BME280;59762;49.998;14.858;2022-07-17T12:37:18;98274.84;;;20.36;34.88
71889;BME280;59762;49.998;14.858;2022-07-17T12:39:45;98261.22;;;20.58;37.01
71889;BME280;59762;49.998;14.858;2022-07-17T12:42:11;98254.78;;;20.64;36.76
71889;BME280;59762;49.998;14.858;2022-07-17T12:44:37;98251.69;;;20.88;37.24
71889;BME280;59762;49.998;14.858;2022-07-17T12:47:03;98259.59;;;20.95;34.44
71889;BME280;59762;49.998;14.858;2022-07-17T12:49:29;98263.91;;;20.90;32.83
71889;BME280;59762;49.998;14.858;2022-07-17T12:51:55;98263.69;;;21.02;32.74
71889;BME280;59762;49.998;14.858;2022-07-17T12:54:21;98266.16;;;20.66;33.80
71889;BME280;59762;49.998;14.858;2022-07-17T12:56:47;98259.06;;;20.55;33.40
71889;BME280;59762;49.998;14.858;2022-07-17T12:59:13;98261.50;;;20.94;36.84
71889;BME280;59762;49.998;14.858;2022-07-17T13:01:39;98263.28;;;21.21;34.30